createdAt,value
2023-05-24T00:01:00.258Z,76.36
2023-05-24T00:03:27.998Z,76.62
2023-05-24T00:05:54.757Z,76.92
2023-05-24T00:08:21.416Z,77.35
2023-05-24T00:10:48.559Z,77.74
2023-05-24T00:13:15.611Z,78.51
2023-05-24T00:15:42.207Z,78.98
2023-05-24T00:18:08.877Z,79.10
2023-05-24T00:20:35.686Z,79.47
2023-05-24T00:23:02.358Z,79.38
2023-05-24T00:25:28.973Z,79.92
2023-05-24T00:27:55.640Z,80.02
2023-05-24T00:30:22.300Z,79.71
2023-05-24T00:32:48.944Z,80.84
2023-05-24T00:35:15.956Z,80.69
2023-05-24T00:37:45.206Z,80.59
2023-05-24T00:40:12.787Z,80.83
2023-05-24T00:42:39.522Z,80.76
2023-05-24T00:45:06.750Z,81.13
2023-05-24T00:47:35.651Z,80.99
2023-05-24T00:50:02.762Z,82.12
2023-05-24T00:52:29.337Z,82.69
2023-05-24T00:54:55.940Z,83.17
2023-05-24T00:57:23.963Z,84.42
2023-05-24T00:59:51.332Z,85.04
2023-05-24T01:02:18.579Z,85.35
2023-05-24T01:04:48.993Z,85.66
2023-05-24T01:07:42.121Z,86.01
2023-05-24T01:10:35.115Z,86.03
2023-05-24T01:13:12.574Z,86.48
2023-05-24T01:15:45.359Z,87.11
2023-05-24T01:18:18.872Z,87.09
2023-05-24T01:20:46.377Z,86.25
2023-05-24T01:23:34.405Z,86.64
2023-05-24T01:26:08.068Z,86.85
2023-05-24T01:28:35.553Z,86.79
2023-05-24T01:31:02.516Z,86.95
2023-05-24T01:33:29.407Z,86.96
2023-05-24T01:35:56.759Z,86.64
2023-05-24T01:38:23.307Z,85.56
2023-05-24T01:40:52.806Z,85.25
2023-05-24T01:43:37.898Z,84.92
2023-05-24T01:46:25.587Z,84.89
2023-05-24T01:48:58.261Z,85.40
2023-05-24T01:51:26.446Z,84.56
2023-05-24T01:53:53.525Z,84.50
2023-05-24T01:56:20.807Z,84.42
2023-05-24T01:58:50.675Z,84.80
2023-05-24T02:01:17.519Z,85.17
2023-05-24T02:03:45.989Z,84.29
2023-05-24T02:06:13.291Z,84.56
2023-05-24T02:08:39.894Z,84.70
2023-05-24T02:11:06.442Z,83.54
2023-05-24T02:13:32.990Z,82.75
2023-05-24T02:15:59.629Z,82.21
2023-05-24T02:18:26.192Z,82.36
2023-05-24T02:20:52.925Z,83.30
2023-05-24T02:23:19.508Z,84.26
2023-05-24T02:25:46.194Z,84.34
2023-05-24T02:28:12.761Z,84.62
2023-05-24T02:30:40.011Z,84.19
2023-05-24T02:33:06.965Z,84.21
2023-05-24T02:35:34.442Z,85.23
2023-05-24T02:38:02.592Z,85.20
2023-05-24T02:40:29.332Z,85.14
2023-05-24T02:42:56.005Z,84.92
2023-05-24T02:45:22.583Z,85.67
2023-05-24T02:47:49.314Z,86.25
2023-05-24T02:50:15.989Z,87.42
2023-05-24T02:52:42.782Z,87.62
2023-05-24T02:55:09.618Z,88.36
2023-05-24T02:57:37.877Z,88.76
2023-05-24T03:00:06.839Z,88.91
2023-05-24T03:02:34.290Z,89.31
2023-05-24T03:05:01.287Z,90.03
2023-05-24T03:07:29.124Z,90.08
2023-05-24T03:09:55.754Z,90.79
2023-05-24T03:12:22.451Z,91.08
2023-05-24T03:14:49.189Z,90.89
2023-05-24T03:17:15.865Z,91.37
2023-05-24T03:19:42.586Z,91.07
2023-05-24T03:22:09.169Z,90.44
2023-05-24T03:24:38.415Z,90.02
2023-05-24T03:27:05.989Z,89.01
2023-05-24T03:29:32.789Z,86.70
2023-05-24T03:31:59.844Z,86.95
2023-05-24T03:34:26.836Z,85.77
2023-05-24T03:36:53.810Z,83.98
2023-05-24T03:39:20.601Z,80.79
2023-05-24T03:42:13.123Z,77.68
2023-05-24T03:44:40.179Z,74.94
2023-05-24T03:47:06.884Z,70.74
2023-05-24T03:49:33.712Z,68.51
2023-05-24T03:52:01.372Z,69.11
2023-05-24T03:54:27.987Z,69.06
2023-05-24T03:56:54.690Z,67.84
2023-05-24T03:59:22.474Z,65.71
2023-05-24T04:01:49.102Z,62.07
2023-05-24T04:04:15.796Z,62.21
2023-05-24T04:06:42.383Z,59.73
2023-05-24T04:09:10.099Z,58.65
2023-05-24T04:11:36.870Z,59.25
2023-05-24T04:14:03.780Z,57.72
2023-05-24T04:16:34.183Z,56.85
2023-05-24T04:19:04.367Z,58.49
2023-05-24T04:21:32.202Z,57.23
2023-05-24T04:24:02.263Z,56.52
2023-05-24T04:26:29.825Z,57.51
2023-05-24T04:28:57.079Z,56.21
2023-05-24T04:31:23.834Z,55.58
2023-05-24T04:33:50.447Z,57.11
2023-05-24T04:36:17.791Z,56.03
2023-05-24T04:38:45.753Z,56.34
2023-05-24T04:41:12.538Z,57.35
2023-05-24T04:43:39.074Z,54.82
2023-05-24T04:46:06.916Z,55.32
2023-05-24T04:48:35.549Z,52.83
2023-05-24T04:51:02.330Z,52.11
2023-05-24T04:53:28.861Z,52.50
2023-05-24T04:55:55.536Z,50.70
2023-05-24T04:58:22.074Z,50.17
2023-05-24T05:00:49.040Z,52.86
2023-05-24T05:03:16.014Z,52.88
2023-05-24T05:05:42.678Z,51.89
2023-05-24T05:08:09.679Z,51.59
2023-05-24T05:10:36.400Z,49.50
2023-05-24T05:13:03.264Z,49.05
2023-05-24T05:15:29.852Z,48.19
2023-05-24T05:17:57.239Z,48.93
2023-05-24T05:20:24.353Z,47.18
2023-05-24T05:22:51.300Z,47.55
2023-05-24T05:25:18.133Z,47.67
2023-05-24T05:27:44.662Z,46.63
2023-05-24T05:30:11.509Z,46.98
2023-05-24T05:32:38.518Z,49.05
2023-05-24T05:35:05.649Z,46.39
2023-05-24T05:37:32.222Z,43.58
2023-05-24T05:39:58.849Z,45.77
2023-05-24T05:42:25.655Z,48.26
2023-05-24T05:44:52.801Z,46.19
2023-05-24T05:47:19.507Z,46.12
2023-05-24T05:49:46.165Z,45.94
2023-05-24T05:52:12.881Z,44.80
2023-05-24T05:54:39.650Z,45.92
2023-05-24T05:57:08.256Z,46.55
2023-05-24T05:59:36.209Z,46.59
2023-05-24T06:02:06.832Z,44.50
2023-05-24T06:04:33.932Z,46.32
2023-05-24T06:07:00.572Z,45.35
2023-05-24T06:09:27.219Z,45.72
2023-05-24T06:11:53.919Z,47.39
2023-05-24T06:14:22.612Z,50.01
2023-05-24T06:16:49.680Z,50.32
2023-05-24T06:19:17.035Z,49.35
2023-05-24T06:21:48.422Z,47.04
2023-05-24T06:24:15.744Z,46.74
2023-05-24T06:26:42.848Z,45.57
2023-05-24T06:29:09.833Z,45.31
2023-05-24T06:31:36.539Z,44.23
2023-05-24T06:34:04.610Z,43.72
2023-05-24T06:36:35.520Z,44.94
2023-05-24T06:39:02.654Z,43.46
2023-05-24T06:41:29.338Z,43.72
2023-05-24T06:43:55.964Z,42.85
2023-05-24T06:46:22.531Z,43.59
2023-05-24T06:48:49.187Z,45.80
2023-05-24T06:51:15.899Z,44.82
2023-05-24T06:53:42.582Z,45.15
2023-05-24T06:56:10.201Z,45.03
2023-05-24T06:58:36.771Z,44.74
2023-05-24T07:01:05.083Z,43.98
2023-05-24T07:03:34.651Z,43.38
2023-05-24T07:06:01.714Z,44.03
2023-05-24T07:08:28.301Z,44.09
2023-05-24T07:10:55.795Z,45.39
2023-05-24T07:13:22.519Z,45.66
2023-05-24T07:15:49.675Z,46.46
2023-05-24T07:18:16.527Z,47.05
2023-05-24T07:20:43.422Z,47.34
2023-05-24T07:23:10.684Z,47.90
2023-05-24T07:25:37.498Z,47.92
2023-05-24T07:28:04.191Z,47.59
2023-05-24T07:30:32.492Z,46.25
2023-05-24T07:33:00.087Z,45.98
2023-05-24T07:35:29.454Z,45.93
2023-05-24T07:37:56.502Z,46.20
2023-05-24T07:40:23.454Z,44.44
2023-05-24T07:42:50.262Z,43.51
2023-05-24T07:45:16.997Z,43.70
2023-05-24T07:47:43.664Z,42.75
2023-05-24T07:50:10.572Z,43.27
2023-05-24T07:52:38.822Z,43.10
2023-05-24T07:55:06.304Z,42.93
2023-05-24T07:57:33.688Z,45.13
2023-05-24T08:00:07.078Z,45.22
2023-05-24T08:02:38.514Z,45.80
2023-05-24T08:05:05.408Z,48.02
2023-05-24T08:07:32.091Z,47.69
2023-05-24T08:09:58.645Z,47.66
2023-05-24T08:12:26.218Z,47.34
2023-05-24T08:14:52.924Z,47.06
2023-05-24T08:17:19.513Z,46.81
2023-05-24T08:19:46.268Z,47.29
2023-05-24T08:22:12.870Z,49.01
2023-05-24T08:24:39.486Z,49.29
2023-05-24T08:27:06.096Z,48.79
2023-05-24T08:29:32.702Z,48.89
2023-05-24T08:32:01.017Z,47.34
2023-05-24T08:34:28.571Z,46.04
2023-05-24T08:36:55.184Z,45.11
2023-05-24T08:39:21.932Z,46.20
2023-05-24T08:42:00.921Z,46.22
2023-05-24T08:45:01.880Z,47.50
2023-05-24T08:47:29.338Z,46.89
2023-05-24T08:49:56.033Z,48.32
2023-05-24T08:52:23.468Z,48.62
2023-05-24T08:54:52.149Z,49.18
2023-05-24T08:57:19.104Z,48.69
2023-05-24T08:59:45.700Z,48.95
2023-05-24T09:02:14.133Z,48.37
2023-05-24T09:04:41.716Z,48.56
2023-05-24T09:07:08.800Z,47.27
2023-05-24T09:09:36.076Z,49.52
2023-05-24T09:12:04.928Z,49.48
2023-05-24T09:14:31.670Z,47.57
2023-05-24T09:16:58.769Z,48.07
2023-05-24T09:19:27.898Z,48.59
2023-05-24T09:21:56.165Z,48.08
2023-05-24T09:24:23.354Z,48.82
2023-05-24T09:26:51.040Z,47.80
2023-05-24T09:29:21.802Z,47.25
2023-05-24T09:31:48.464Z,47.76
2023-05-24T09:34:15.476Z,46.97
2023-05-24T09:36:43.220Z,46.95
2023-05-24T09:39:10.363Z,49.29
2023-05-24T09:41:37.466Z,46.49
2023-05-24T09:44:04.445Z,48.32
2023-05-24T09:46:36.083Z,46.44
2023-05-24T09:49:04.159Z,45.36
2023-05-24T09:51:31.104Z,45.17
2023-05-24T09:53:58.373Z,46.94
2023-05-24T09:56:25.097Z,46.78
2023-05-24T09:58:51.754Z,46.15
2023-05-24T10:01:19.177Z,46.35
2023-05-24T10:03:55.610Z,44.96
2023-05-24T10:06:24.004Z,46.23
2023-05-24T10:08:54.498Z,45.53
2023-05-24T10:11:21.582Z,46.84
2023-05-24T10:13:48.481Z,45.65
2023-05-24T10:16:15.851Z,45.65
2023-05-24T10:18:42.427Z,47.06
2023-05-24T10:21:10.271Z,46.24
2023-05-24T10:23:37.956Z,46.47
2023-05-24T10:26:06.751Z,48.34
2023-05-24T10:28:35.724Z,46.18
2023-05-24T10:31:05.946Z,46.18
2023-05-24T10:33:35.148Z,48.03
2023-05-24T10:36:04.093Z,46.87
2023-05-24T10:38:31.482Z,48.09
2023-05-24T10:40:58.938Z,46.92
2023-05-24T10:43:26.112Z,47.53
2023-05-24T10:45:53.154Z,47.12
2023-05-24T10:48:28.874Z,48.24
2023-05-24T10:50:56.214Z,46.79
2023-05-24T10:53:26.054Z,46.76
2023-05-24T10:55:59.743Z,46.64
2023-05-24T10:58:33.009Z,48.35
2023-05-24T11:00:59.889Z,47.90
2023-05-24T11:03:32.739Z,48.33
2023-05-24T11:06:00.325Z,47.86
2023-05-24T11:08:31.758Z,48.40
2023-05-24T11:11:31.952Z,47.52
2023-05-24T11:14:01.388Z,48.38
2023-05-24T11:16:40.143Z,47.41
2023-05-24T11:19:19.544Z,46.71
2023-05-24T11:21:47.343Z,47.74
2023-05-24T11:24:14.141Z,48.16
2023-05-24T11:26:41.261Z,47.39
2023-05-24T11:29:07.984Z,47.55
2023-05-24T11:31:37.926Z,47.97
2023-05-24T11:34:10.547Z,46.21
2023-05-24T11:36:37.264Z,46.72
2023-05-24T11:39:09.618Z,48.48
2023-05-24T11:41:39.430Z,48.45
2023-05-24T11:44:07.545Z,48.27
2023-05-24T11:46:34.478Z,48.74
2023-05-24T11:49:01.275Z,48.12
2023-05-24T11:51:31.625Z,46.46
2023-05-24T11:53:58.434Z,47.87
2023-05-24T11:56:31.646Z,48.26
2023-05-24T11:59:05.642Z,47.24
2023-05-24T12:01:32.196Z,46.21
2023-05-24T12:03:58.900Z,47.08
2023-05-24T12:06:33.985Z,46.26
2023-05-24T12:09:00.723Z,46.37
2023-05-24T12:11:28.469Z,45.12
2023-05-24T12:13:55.051Z,46.26
2023-05-24T12:16:22.414Z,47.37
2023-05-24T12:19:02.400Z,47.18
2023-05-24T12:21:33.340Z,46.39
2023-05-24T12:24:10.504Z,45.31
2023-05-24T12:26:40.598Z,45.15
2023-05-24T12:29:07.195Z,46.34
2023-05-24T12:31:34.504Z,46.68
2023-05-24T12:34:01.203Z,46.67
2023-05-24T12:36:29.652Z,46.76
2023-05-24T12:39:01.870Z,47.21
2023-05-24T12:41:29.218Z,46.77
2023-05-24T12:43:55.763Z,45.63
2023-05-24T12:46:22.434Z,46.91
2023-05-24T12:48:49.306Z,47.05
2023-05-24T12:51:16.517Z,47.21
2023-05-24T12:53:43.400Z,48.69
2023-05-24T12:56:10.135Z,48.16
2023-05-24T12:58:36.780Z,48.19
2023-05-24T13:01:03.638Z,48.91
2023-05-24T13:03:30.203Z,48.61
2023-05-24T13:05:59.128Z,46.67
2023-05-24T13:08:28.661Z,47.49
2023-05-24T13:10:55.233Z,46.61
2023-05-24T13:13:21.985Z,46.68
2023-05-24T13:15:48.941Z,46.79
2023-05-24T13:18:16.219Z,50.03
2023-05-24T13:20:43.100Z,50.06
2023-05-24T13:23:10.067Z,46.99
2023-05-24T13:25:36.627Z,46.80
2023-05-24T13:28:03.391Z,47.16
2023-05-24T13:30:30.080Z,46.89
2023-05-24T13:32:58.616Z,46.63
2023-05-24T13:35:25.610Z,47.70
2023-05-24T13:37:54.772Z,47.10
2023-05-24T13:40:22.101Z,45.85
2023-05-24T13:42:48.712Z,44.75
2023-05-24T13:45:15.297Z,46.26
2023-05-24T13:47:44.986Z,45.43
2023-05-24T13:50:12.170Z,46.47
2023-05-24T13:52:39.684Z,46.05
2023-05-24T13:55:06.728Z,45.74
2023-05-24T13:57:49.619Z,44.93
2023-05-24T14:00:18.081Z,45.04
2023-05-24T14:02:44.874Z,45.22
2023-05-24T14:05:25.880Z,44.54
2023-05-24T14:07:54.492Z,46.02
2023-05-24T14:10:22.001Z,45.00
2023-05-24T14:12:59.672Z,45.68
2023-05-24T14:15:35.293Z,46.01
2023-05-24T14:18:07.582Z,45.17
2023-05-24T14:20:37.768Z,46.05
2023-05-24T14:23:04.937Z,43.58
2023-05-24T14:25:32.153Z,43.62
2023-05-24T14:27:59.085Z,43.74
2023-05-24T14:30:28.489Z,45.42
2023-05-24T14:32:55.128Z,45.20
2023-05-24T14:35:21.788Z,45.29
2023-05-24T14:37:48.389Z,44.59
2023-05-24T14:40:16.999Z,45.23
2023-05-24T14:42:45.037Z,45.49
2023-05-24T14:45:11.903Z,46.22
2023-05-24T14:47:38.519Z,45.71
2023-05-24T14:50:05.440Z,47.35
2023-05-24T14:52:32.790Z,46.62
2023-05-24T14:54:59.421Z,46.73
2023-05-24T14:57:26.002Z,46.44
2023-05-24T14:59:52.569Z,46.17
2023-05-24T15:02:19.340Z,46.78
2023-05-24T15:04:48.058Z,47.42
2023-05-24T15:07:14.694Z,47.69
2023-05-24T15:09:41.360Z,49.08
2023-05-24T15:12:08.637Z,49.11
2023-05-24T15:14:37.309Z,49.14
2023-05-24T15:17:04.103Z,49.34
2023-05-24T15:19:30.802Z,49.19
2023-05-24T15:21:57.550Z,49.24
2023-05-24T15:24:24.159Z,50.28
2023-05-24T15:26:50.967Z,49.98
2023-05-24T15:29:17.638Z,49.44
2023-05-24T15:31:44.589Z,48.95
2023-05-24T15:34:11.334Z,48.13
2023-05-24T15:36:38.570Z,47.69
2023-05-24T15:39:06.095Z,47.99
2023-05-24T15:41:33.036Z,49.52
2023-05-24T15:44:00.926Z,49.08
2023-05-24T15:46:27.665Z,48.53
2023-05-24T15:48:54.313Z,48.74
2023-05-24T15:53:50.945Z,48.65
2023-05-24T15:56:17.575Z,48.29
2023-05-24T15:58:45.880Z,47.55
2023-05-24T16:01:12.531Z,48.58
2023-05-24T16:03:39.211Z,48.57
2023-05-24T16:06:06.241Z,49.55
2023-05-24T16:08:32.884Z,49.75
2023-05-24T16:10:59.638Z,50.67
2023-05-24T16:13:26.435Z,50.35
2023-05-24T16:15:53.092Z,50.99
2023-05-24T16:18:23.708Z,51.00
2023-05-24T16:20:53.896Z,50.45
2023-05-24T16:23:22.989Z,49.53
2023-05-24T16:25:49.821Z,49.65
2023-05-24T16:28:16.395Z,51.16
2023-05-24T16:30:43.724Z,50.32
2023-05-24T16:33:10.655Z,50.67
2023-05-24T16:35:37.306Z,50.53
2023-05-24T16:38:03.902Z,50.48
2023-05-24T16:40:30.690Z,50.19
2023-05-24T16:42:57.303Z,50.26
2023-05-24T16:45:24.221Z,50.44
2023-05-24T16:47:51.166Z,50.12
2023-05-24T16:50:17.950Z,50.70
2023-05-24T16:52:44.806Z,51.32
2023-05-24T16:55:11.945Z,51.94
2023-05-24T16:57:38.569Z,52.24
2023-05-24T17:00:05.532Z,52.32
2023-05-24T17:02:32.243Z,52.14
2023-05-24T17:04:59.099Z,51.75
2023-05-24T17:07:25.902Z,52.34
2023-05-24T17:09:52.539Z,52.89
2023-05-24T17:12:21.128Z,52.54
2023-05-24T17:14:47.856Z,52.91
2023-05-24T17:17:14.523Z,53.33
2023-05-24T17:19:41.535Z,53.89
2023-05-24T17:22:08.773Z,54.56
2023-05-24T17:24:35.434Z,55.26
2023-05-24T17:27:05.405Z,54.74
2023-05-24T17:29:32.537Z,54.93
2023-05-24T17:31:59.215Z,55.23
2023-05-24T17:34:26.000Z,55.18
2023-05-24T17:36:52.698Z,55.18
2023-05-24T17:39:20.199Z,55.54
2023-05-24T17:41:46.761Z,56.24
2023-05-24T17:44:13.471Z,56.88
2023-05-24T17:46:41.669Z,57.10
2023-05-24T17:49:08.443Z,57.17
2023-05-24T17:51:35.161Z,57.67
2023-05-24T17:54:01.772Z,58.43
2023-05-24T17:56:30.416Z,58.65
2023-05-24T17:58:57.531Z,58.57
2023-05-24T18:01:24.381Z,58.46
2023-05-24T18:03:50.979Z,58.92
2023-05-24T18:06:17.643Z,59.38
2023-05-24T18:08:44.325Z,59.83
2023-05-24T18:11:12.656Z,60.52
2023-05-24T18:13:39.868Z,60.83
2023-05-24T18:16:07.265Z,61.24
2023-05-24T18:18:34.374Z,61.68
2023-05-24T18:21:01.329Z,62.20
2023-05-24T18:23:28.144Z,62.52
2023-05-24T18:26:01.626Z,63.19
2023-05-24T18:28:28.873Z,63.97
2023-05-24T18:30:55.649Z,64.53
2023-05-24T18:33:22.464Z,64.99
2023-05-24T18:35:49.150Z,65.53
2023-05-24T18:38:15.823Z,66.09
2023-05-24T18:40:42.472Z,66.89
2023-05-24T18:43:09.099Z,67.55
2023-05-24T18:45:35.884Z,68.28
2023-05-24T18:48:02.539Z,68.84
2023-05-24T18:50:29.227Z,69.30
2023-05-24T18:52:56.025Z,70.15
2023-05-24T18:55:22.703Z,70.77
2023-05-24T18:57:49.335Z,71.35
2023-05-24T19:00:19.306Z,71.87
2023-05-24T19:02:46.172Z,72.18
2023-05-24T19:05:13.021Z,73.04
2023-05-24T19:07:39.650Z,73.33
2023-05-24T19:10:07.055Z,74.40
2023-05-24T19:12:33.713Z,75.29
2023-05-24T19:15:02.770Z,75.98
2023-05-24T19:17:29.506Z,76.62
2023-05-24T19:19:56.198Z,76.87
2023-05-24T19:22:22.931Z,77.31
2023-05-24T19:24:49.658Z,78.38
2023-05-24T19:27:16.359Z,78.73
2023-05-24T19:29:43.047Z,77.82
2023-05-24T19:32:11.692Z,77.48
2023-05-24T19:34:42.206Z,77.54
2023-05-24T19:37:09.719Z,77.98
2023-05-24T19:39:36.981Z,78.54
2023-05-24T19:42:04.235Z,78.62
2023-05-24T19:44:31.148Z,78.80
2023-05-24T19:46:57.789Z,77.74
2023-05-24T19:49:24.536Z,77.56
2023-05-24T19:51:51.523Z,77.30
2023-05-24T19:54:18.132Z,78.03
2023-05-24T19:56:45.707Z,78.52
2023-05-24T19:59:12.369Z,79.69
2023-05-24T20:01:39.130Z,79.98
2023-05-24T20:04:05.899Z,80.73
2023-05-24T20:06:33.147Z,80.41
2023-05-24T20:09:00.368Z,79.93
2023-05-24T20:11:28.123Z,78.31
2023-05-24T20:13:55.971Z,78.22
2023-05-24T20:16:23.059Z,78.38
2023-05-24T20:18:49.736Z,78.22
2023-05-24T20:21:17.719Z,78.82
2023-05-24T20:23:44.357Z,79.05
2023-05-24T20:26:11.056Z,80.10
2023-05-24T20:28:37.757Z,80.83
2023-05-24T20:31:04.405Z,81.19
2023-05-24T20:33:31.064Z,81.10
2023-05-24T20:35:58.172Z,80.75
2023-05-24T20:38:24.911Z,80.75
2023-05-24T20:40:51.508Z,81.53
2023-05-24T20:43:18.146Z,81.73
2023-05-24T20:45:44.993Z,81.73
2023-05-24T20:48:11.849Z,80.94
2023-05-24T20:50:38.598Z,81.18
2023-05-24T20:53:05.184Z,81.78
2023-05-24T20:55:31.859Z,81.04
2023-05-24T20:57:58.487Z,80.58
2023-05-24T21:00:25.171Z,80.65
2023-05-24T21:02:51.907Z,80.78
2023-05-24T21:05:18.672Z,80.75
2023-05-24T21:07:45.297Z,80.64
2023-05-24T21:10:16.670Z,80.86
2023-05-24T21:12:43.442Z,81.12
2023-05-24T21:15:10.464Z,81.65
2023-05-24T21:17:38.079Z,82.06
2023-05-24T21:20:05.074Z,82.39
2023-05-24T21:22:31.801Z,82.53
2023-05-24T21:24:58.485Z,83.37
2023-05-24T21:27:25.202Z,82.96
2023-05-24T21:29:51.808Z,82.81
2023-05-24T21:32:18.503Z,82.77
2023-05-24T21:34:45.171Z,82.78
2023-05-24T21:37:11.906Z,82.79
2023-05-24T21:39:38.520Z,82.15
2023-05-24T21:42:05.254Z,81.94
2023-05-24T21:44:31.842Z,81.33
2023-05-24T21:46:58.481Z,81.82
2023-05-24T21:49:26.028Z,81.91
2023-05-24T21:51:52.632Z,82.33
2023-05-24T21:54:20.047Z,82.07
2023-05-24T21:56:46.833Z,82.31
2023-05-24T21:59:13.469Z,82.42
2023-05-24T22:01:40.239Z,82.15
2023-05-24T22:04:06.899Z,81.95
2023-05-24T22:06:33.724Z,82.08
2023-05-24T22:09:02.049Z,82.31
2023-05-24T22:11:29.314Z,82.26
2023-05-24T22:13:56.397Z,82.17
2023-05-24T22:16:23.444Z,82.80
2023-05-24T22:18:52.810Z,82.66
2023-05-24T22:21:21.622Z,82.61
2023-05-24T22:23:51.264Z,82.25
2023-05-24T22:26:17.943Z,82.60
2023-05-24T22:28:54.807Z,82.24
2023-05-24T22:31:22.003Z,82.51
2023-05-24T22:33:49.414Z,82.68
2023-05-24T22:36:16.032Z,82.62
2023-05-24T22:38:42.754Z,82.84
2023-05-24T22:41:09.573Z,82.99
2023-05-24T22:43:36.171Z,82.62
2023-05-24T22:46:02.839Z,83.17
2023-05-24T22:48:29.562Z,82.76
2023-05-24T22:50:59.462Z,82.86
2023-05-24T22:53:26.277Z,83.21
2023-05-24T22:55:52.920Z,83.30
2023-05-24T22:58:21.394Z,83.84
2023-05-24T23:00:48.008Z,83.39
2023-05-24T23:03:14.640Z,83.76
2023-05-24T23:05:41.933Z,83.71
2023-05-24T23:08:13.112Z,83.50
2023-05-24T23:10:45.502Z,83.24
2023-05-24T23:13:13.524Z,83.27
2023-05-24T23:15:40.478Z,82.72
2023-05-24T23:18:07.246Z,82.50
2023-05-24T23:20:40.145Z,83.19
2023-05-24T23:23:07.828Z,83.37
2023-05-24T23:25:34.510Z,83.49
2023-05-24T23:28:01.479Z,83.01
2023-05-24T23:30:28.337Z,82.84
2023-05-24T23:32:55.013Z,82.84
2023-05-24T23:35:21.801Z,83.09
2023-05-24T23:37:48.379Z,83.05
2023-05-24T23:40:15.140Z,83.10
2023-05-24T23:42:41.764Z,83.05
2023-05-24T23:45:08.535Z,83.40
2023-05-24T23:47:35.262Z,83.05
2023-05-24T23:50:01.968Z,83.23
2023-05-24T23:52:28.625Z,82.96
2023-05-24T23:54:55.484Z,82.71
2023-05-24T23:57:22.088Z,83.24
2023-05-24T23:59:48.671Z,83.11
